createdAt,value
2022-10-11T00:00:12.051Z,76.72
2022-10-11T00:02:38.976Z,77.27
2022-10-11T00:05:06.632Z,76.60
2022-10-11T00:07:33.677Z,76.68
2022-10-11T00:10:00.686Z,76.55
2022-10-11T00:12:27.640Z,76.35
2022-10-11T00:14:54.596Z,77.04
2022-10-11T00:17:21.617Z,77.70
2022-10-11T00:19:48.557Z,76.98
2022-10-11T00:22:15.519Z,77.19
2022-10-11T00:24:42.655Z,77.80
2022-10-11T00:27:09.663Z,77.39
2022-10-11T00:29:38.306Z,78.36
2022-10-11T00:32:06.109Z,78.24
2022-10-11T00:34:33.138Z,78.57
2022-10-11T00:37:00.054Z,78.84
2022-10-11T00:39:26.972Z,78.73
2022-10-11T00:41:54.344Z,78.13
2022-10-11T00:44:28.167Z,78.43
2022-10-11T00:47:15.426Z,78.46
2022-10-11T00:49:45.830Z,78.31
2022-10-11T00:52:21.709Z,78.53
2022-10-11T00:54:50.085Z,79.37
2022-10-11T00:57:25.137Z,78.60
2022-10-11T00:59:56.170Z,78.99
2022-10-11T01:02:24.601Z,80.21
2022-10-11T01:05:11.378Z,79.90
2022-10-11T01:07:40.718Z,79.98
2022-10-11T01:10:08.069Z,80.54
2022-10-11T01:12:36.349Z,80.07
2022-10-11T01:15:17.425Z,80.28
2022-10-11T01:18:33.357Z,80.65
2022-10-11T01:21:33.030Z,81.03
2022-10-11T01:24:12.055Z,80.20
2022-10-11T01:27:02.306Z,80.54
2022-10-11T01:29:53.461Z,80.72
2022-10-11T01:32:53.647Z,80.40
2022-10-11T01:36:06.377Z,80.70
2022-10-11T01:38:56.690Z,80.70
2022-10-11T01:41:33.751Z,79.19
2022-10-11T01:44:02.369Z,80.35
2022-10-11T01:46:30.576Z,80.44
2022-10-11T01:49:01.146Z,80.09
2022-10-11T01:51:47.508Z,80.44
2022-10-11T01:55:09.977Z,80.58
2022-10-11T01:58:04.769Z,80.61
2022-10-11T02:01:09.284Z,79.75
2022-10-11T02:04:25.366Z,80.43
2022-10-11T02:07:08.689Z,80.10
2022-10-11T02:09:53.774Z,79.12
2022-10-11T02:12:38.449Z,80.94
2022-10-11T02:15:10.612Z,80.41
2022-10-11T02:17:45.525Z,80.16
2022-10-11T02:20:19.007Z,80.24
2022-10-11T02:22:49.973Z,80.03
2022-10-11T02:25:25.199Z,79.51
2022-10-11T02:27:57.281Z,80.26
2022-10-11T02:30:24.205Z,80.61
2022-10-11T02:32:53.041Z,80.91
2022-10-11T02:35:25.195Z,80.73
2022-10-11T02:37:59.347Z,81.38
2022-10-11T02:40:41.475Z,81.34
2022-10-11T02:43:39.519Z,80.63
2022-10-11T02:46:09.205Z,80.98
2022-10-11T02:48:37.479Z,80.99
2022-10-11T02:51:05.300Z,81.68
2022-10-11T02:53:33.594Z,81.91
2022-10-11T02:56:00.533Z,81.56
2022-10-11T02:58:27.495Z,82.14
2022-10-11T03:00:54.431Z,81.25
2022-10-11T03:03:21.349Z,82.55
2022-10-11T03:05:49.032Z,83.05
2022-10-11T03:08:17.431Z,82.72
2022-10-11T03:10:44.623Z,82.71
2022-10-11T03:13:15.963Z,83.03
2022-10-11T03:16:02.385Z,82.77
2022-10-11T03:18:30.751Z,83.36
2022-10-11T03:20:57.745Z,82.70
2022-10-11T03:23:24.693Z,82.81
2022-10-11T03:25:52.217Z,84.00
2022-10-11T03:28:19.801Z,83.96
2022-10-11T03:30:51.274Z,84.71
2022-10-11T03:33:18.742Z,84.52
2022-10-11T03:35:47.241Z,83.91
2022-10-11T03:38:20.807Z,84.89
2022-10-11T03:40:48.370Z,85.24
2022-10-11T03:43:15.572Z,85.77
2022-10-11T03:45:42.634Z,86.60
2022-10-11T03:48:10.700Z,86.68
2022-10-11T03:50:38.187Z,87.19
2022-10-11T03:53:06.959Z,87.05
2022-10-11T03:55:34.129Z,87.09
2022-10-11T03:58:01.137Z,87.03
2022-10-11T04:00:28.146Z,87.09
2022-10-11T04:02:55.082Z,88.04
2022-10-11T04:05:22.056Z,88.05
2022-10-11T04:07:49.085Z,88.08
2022-10-11T04:10:16.116Z,88.61
2022-10-11T04:12:43.820Z,87.78
2022-10-11T04:15:13.428Z,88.14
2022-10-11T04:17:41.304Z,88.37
2022-10-11T04:20:09.255Z,88.73
2022-10-11T04:22:36.384Z,88.84
2022-10-11T04:25:03.607Z,89.50
2022-10-11T04:27:30.765Z,88.93
2022-10-11T04:29:57.716Z,89.52
2022-10-11T04:32:24.719Z,89.97
2022-10-11T04:34:51.717Z,89.57
2022-10-11T04:37:19.276Z,89.67
2022-10-11T04:39:46.175Z,90.07
2022-10-11T04:42:13.221Z,90.09
2022-10-11T04:44:40.183Z,90.16
2022-10-11T04:47:07.139Z,90.00
2022-10-11T04:49:34.080Z,90.68
2022-10-11T04:52:01.154Z,91.07
2022-10-11T04:54:28.066Z,91.90
2022-10-11T04:56:55.064Z,91.28
2022-10-11T04:59:21.968Z,91.60
2022-10-11T05:01:49.038Z,92.19
2022-10-11T05:04:16.076Z,90.88
2022-10-11T05:06:43.274Z,91.44
2022-10-11T05:09:10.286Z,91.14
2022-10-11T05:11:37.281Z,92.03
2022-10-11T05:14:04.258Z,91.77
2022-10-11T05:16:31.211Z,91.43
2022-10-11T05:18:58.170Z,92.07
2022-10-11T05:21:28.259Z,92.20
2022-10-11T05:23:56.757Z,92.36
2022-10-11T05:26:27.744Z,91.82
2022-10-11T05:28:55.603Z,91.37
2022-10-11T05:31:22.691Z,91.00
2022-10-11T05:33:50.033Z,90.93
2022-10-11T05:36:17.270Z,91.41
2022-10-11T05:38:44.764Z,91.15
2022-10-11T05:41:14.968Z,91.39
2022-10-11T05:43:42.335Z,90.56
2022-10-11T05:46:09.425Z,90.40
2022-10-11T05:48:36.710Z,89.82
2022-10-11T05:51:06.682Z,89.22
2022-10-11T05:53:34.172Z,90.82
2022-10-11T05:56:01.106Z,91.05
2022-10-11T05:58:28.638Z,89.52
2022-10-11T06:00:56.962Z,88.49
2022-10-11T06:03:24.331Z,88.14
2022-10-11T06:05:55.768Z,87.22
2022-10-11T06:08:23.813Z,85.76
2022-10-11T06:10:50.981Z,84.56
2022-10-11T06:13:18.535Z,82.69
2022-10-11T06:15:45.465Z,83.66
2022-10-11T06:18:12.372Z,81.34
2022-10-11T06:20:39.306Z,81.50
2022-10-11T06:23:06.315Z,79.27
2022-10-11T06:25:33.285Z,78.50
2022-10-11T06:28:00.225Z,79.56
2022-10-11T06:30:27.246Z,77.43
2022-10-11T06:32:54.224Z,75.19
2022-10-11T06:35:21.185Z,67.22
2022-10-11T06:37:48.075Z,61.71
2022-10-11T06:40:15.190Z,58.95
2022-10-11T06:42:42.115Z,56.17
2022-10-11T06:45:09.584Z,54.57
2022-10-11T06:47:36.490Z,55.01
2022-10-11T06:50:03.727Z,54.42
2022-10-11T06:52:30.653Z,52.81
2022-10-11T06:54:57.600Z,51.10
2022-10-11T06:57:24.546Z,50.25
2022-10-11T06:59:51.555Z,50.05
2022-10-11T07:02:18.451Z,50.84
2022-10-11T07:04:45.385Z,53.23
2022-10-11T07:07:15.223Z,54.45
2022-10-11T07:09:42.209Z,55.75
2022-10-11T07:12:09.303Z,56.28
2022-10-11T07:14:36.324Z,58.94
2022-10-11T07:17:03.569Z,60.64
2022-10-11T07:19:30.623Z,61.91
2022-10-11T07:21:57.783Z,60.67
2022-10-11T07:24:24.866Z,58.53
2022-10-11T07:26:51.815Z,54.68
2022-10-11T07:29:18.878Z,51.95
2022-10-11T07:31:45.906Z,51.50
2022-10-11T07:34:13.128Z,53.63
2022-10-11T07:36:40.309Z,53.97
2022-10-11T07:39:08.843Z,53.03
2022-10-11T07:41:38.850Z,52.87
2022-10-11T07:44:07.656Z,54.18
2022-10-11T07:46:34.603Z,54.17
2022-10-11T07:49:01.537Z,56.36
2022-10-11T07:51:28.493Z,58.27
2022-10-11T07:53:56.949Z,60.41
2022-10-11T07:56:29.161Z,62.27
2022-10-11T07:59:00.299Z,62.55
2022-10-11T08:01:28.651Z,63.43
2022-10-11T08:03:58.961Z,65.16
2022-10-11T08:06:31.736Z,65.70
2022-10-11T08:09:01.167Z,65.05
2022-10-11T08:11:35.401Z,65.91
2022-10-11T08:14:08.507Z,65.67
2022-10-11T08:16:37.244Z,66.89
2022-10-11T08:19:05.192Z,65.54
2022-10-11T08:21:33.015Z,64.53
2022-10-11T08:24:01.595Z,63.91
2022-10-11T08:26:28.641Z,64.69
2022-10-11T08:28:55.666Z,63.82
2022-10-11T08:31:22.789Z,63.05
2022-10-11T08:33:49.768Z,61.60
2022-10-11T08:36:16.762Z,59.97
2022-10-11T08:38:43.981Z,58.78
2022-10-11T08:41:37.232Z,59.59
2022-10-11T08:44:28.051Z,58.81
2022-10-11T08:47:15.765Z,59.47
2022-10-11T08:49:42.985Z,60.01
2022-10-11T08:52:24.607Z,57.58
2022-10-11T08:55:10.169Z,56.25
2022-10-11T08:57:39.124Z,57.09
2022-10-11T09:00:14.489Z,57.20
2022-10-11T09:03:10.949Z,56.26
2022-10-11T09:06:13.297Z,57.27
2022-10-11T09:09:20.392Z,57.64
2022-10-11T09:12:10.729Z,57.73
2022-10-11T09:14:56.589Z,58.08
2022-10-11T09:17:40.157Z,58.28
2022-10-11T09:20:34.020Z,58.37
2022-10-11T09:23:31.811Z,58.24
2022-10-11T09:26:35.283Z,58.82
2022-10-11T09:29:22.744Z,59.93
2022-10-11T09:31:55.951Z,59.52
2022-10-11T09:34:32.355Z,58.71
2022-10-11T09:37:35.394Z,53.82
2022-10-11T09:40:48.538Z,53.67
2022-10-11T09:43:15.471Z,54.06
2022-10-11T09:45:49.241Z,53.90
2022-10-11T09:48:27.352Z,53.54
2022-10-11T09:51:05.149Z,54.02
2022-10-11T09:53:56.038Z,53.68
2022-10-11T09:56:27.555Z,52.34
2022-10-11T09:59:19.543Z,51.62
2022-10-11T10:01:46.707Z,49.49
2022-10-11T10:04:19.303Z,47.49
2022-10-11T10:06:46.284Z,47.74
2022-10-11T10:09:30.155Z,49.15
2022-10-11T10:11:58.147Z,47.62
2022-10-11T10:14:30.711Z,45.85
2022-10-11T10:17:15.664Z,45.03
2022-10-11T10:19:56.760Z,45.79
2022-10-11T10:22:35.751Z,47.61
2022-10-11T10:25:08.081Z,46.59
2022-10-11T10:27:35.294Z,44.82
2022-10-11T10:30:08.035Z,44.54
2022-10-11T10:33:07.137Z,43.36
2022-10-11T10:35:46.903Z,43.03
2022-10-11T10:38:52.175Z,43.69
2022-10-11T10:41:19.578Z,44.84
2022-10-11T10:43:55.745Z,44.40
2022-10-11T10:46:58.807Z,44.59
2022-10-11T10:49:55.383Z,45.00
2022-10-11T10:52:48.163Z,45.98
2022-10-11T10:55:37.561Z,45.78
2022-10-11T10:58:07.424Z,46.02
2022-10-11T11:00:46.197Z,45.33
2022-10-11T11:03:44.869Z,44.93
2022-10-11T11:06:50.897Z,44.97
2022-10-11T11:09:43.722Z,44.27
2022-10-11T11:12:56.918Z,42.21
2022-10-11T11:15:43.198Z,43.56
2022-10-11T11:18:35.907Z,42.12
2022-10-11T11:21:24.085Z,41.01
2022-10-11T11:24:17.186Z,41.22
2022-10-11T11:27:11.622Z,40.18
2022-10-11T11:30:04.770Z,40.86
2022-10-11T11:32:49.683Z,40.30
2022-10-11T11:35:44.009Z,40.21
2022-10-11T11:38:29.818Z,41.04
2022-10-11T11:41:05.258Z,42.06
2022-10-11T11:43:39.498Z,43.41
2022-10-11T11:46:25.155Z,41.93
2022-10-11T11:48:54.365Z,42.28
2022-10-11T11:51:41.119Z,41.12
2022-10-11T11:54:35.001Z,39.93
2022-10-11T11:57:35.909Z,39.04
2022-10-11T12:00:12.803Z,39.17
2022-10-11T12:02:58.949Z,38.88
2022-10-11T12:05:33.880Z,40.24
2022-10-11T12:08:31.801Z,39.48
2022-10-11T12:11:02.480Z,39.67
2022-10-11T12:13:37.090Z,39.83
2022-10-11T12:16:09.682Z,40.44
2022-10-11T12:19:01.135Z,41.51
2022-10-11T12:21:40.339Z,41.07
2022-10-11T12:24:23.815Z,40.02
2022-10-11T12:26:57.929Z,41.09
2022-10-11T12:29:50.996Z,40.65
2022-10-11T12:32:26.952Z,40.55
2022-10-11T12:35:31.793Z,41.62
2022-10-11T12:38:25.692Z,40.90
2022-10-11T12:41:09.739Z,41.09
2022-10-11T12:44:24.777Z,41.78
2022-10-11T12:46:53.561Z,41.83
2022-10-11T12:49:42.639Z,42.32
2022-10-11T12:52:28.421Z,41.28
2022-10-11T12:55:29.881Z,42.66
2022-10-11T12:58:09.215Z,41.36
2022-10-11T13:00:51.110Z,41.76
2022-10-11T13:03:39.619Z,42.19
2022-10-11T13:06:27.047Z,41.62
2022-10-11T13:09:03.941Z,42.55
2022-10-11T13:11:36.853Z,42.08
2022-10-11T13:14:22.985Z,42.05
2022-10-11T13:17:19.448Z,42.42
2022-10-11T13:19:50.846Z,41.35
2022-10-11T13:22:22.843Z,40.93
2022-10-11T13:24:50.095Z,41.19
2022-10-11T13:27:27.310Z,41.63
2022-10-11T13:30:00.476Z,42.15
2022-10-11T13:32:31.083Z,42.18
2022-10-11T13:35:07.320Z,42.70
2022-10-11T13:37:45.285Z,42.76
2022-10-11T13:40:19.957Z,43.47
2022-10-11T13:42:49.386Z,43.82
2022-10-11T13:45:23.716Z,44.24
2022-10-11T13:47:52.909Z,43.83
2022-10-11T13:50:32.398Z,44.11
2022-10-11T13:53:08.310Z,43.72
2022-10-11T13:55:55.996Z,44.28
2022-10-11T13:58:40.278Z,43.88
2022-10-11T14:01:20.022Z,42.53
2022-10-11T14:04:00.835Z,44.23
2022-10-11T14:06:58.083Z,43.59
2022-10-11T14:09:37.275Z,44.22
2022-10-11T14:12:35.642Z,44.43
2022-10-11T14:15:26.061Z,44.41
2022-10-11T14:17:53.370Z,45.17
2022-10-11T14:20:30.887Z,45.75
2022-10-11T14:23:00.203Z,45.67
2022-10-11T14:25:27.205Z,45.65
2022-10-11T14:27:55.120Z,45.50
2022-10-11T14:30:26.628Z,45.51
2022-10-11T14:32:58.027Z,45.73
2022-10-11T14:35:28.046Z,44.61
2022-10-11T14:37:55.137Z,44.91
2022-10-11T14:40:26.169Z,45.27
2022-10-11T14:42:53.343Z,45.48
2022-10-11T14:45:21.384Z,45.47
2022-10-11T14:47:48.582Z,45.53
2022-10-11T14:50:42.530Z,45.69
2022-10-11T14:53:10.652Z,46.49
2022-10-11T14:55:39.520Z,46.56
2022-10-11T14:58:09.048Z,47.10
2022-10-11T15:00:37.117Z,47.26
2022-10-11T15:03:05.241Z,47.32
2022-10-11T15:05:34.275Z,47.38
2022-10-11T15:08:06.124Z,48.14
2022-10-11T15:10:41.546Z,48.65
2022-10-11T15:13:09.419Z,48.99
2022-10-11T15:15:40.963Z,49.50
2022-10-11T15:18:12.525Z,50.46
2022-10-11T15:20:43.594Z,50.41
2022-10-11T15:23:12.199Z,50.84
2022-10-11T15:25:40.907Z,51.46
2022-10-11T15:28:19.764Z,51.96
2022-10-11T15:30:46.729Z,52.58
2022-10-11T15:33:13.668Z,53.28
2022-10-11T15:35:40.619Z,53.24
2022-10-11T15:38:16.119Z,53.71
2022-10-11T15:40:43.440Z,54.42
2022-10-11T15:43:10.391Z,54.36
2022-10-11T15:45:37.497Z,54.52
2022-10-11T15:48:04.867Z,54.98
2022-10-11T15:50:36.804Z,55.57
2022-10-11T15:53:17.863Z,56.02
2022-10-11T15:55:51.834Z,56.77
2022-10-11T15:58:40.865Z,57.54
2022-10-11T16:01:15.555Z,58.01
2022-10-11T16:03:43.270Z,58.59
2022-10-11T16:06:11.280Z,59.44
2022-10-11T16:08:38.788Z,60.27
2022-10-11T16:11:08.792Z,60.89
2022-10-11T16:13:36.300Z,61.08
2022-10-11T16:16:07.131Z,61.34
2022-10-11T16:18:35.809Z,61.80
2022-10-11T16:21:11.107Z,62.37
2022-10-11T16:23:38.946Z,62.62
2022-10-11T16:26:12.037Z,63.15
2022-10-11T16:28:39.150Z,63.17
2022-10-11T16:31:09.412Z,63.65
2022-10-11T16:33:45.678Z,64.22
2022-10-11T16:36:35.154Z,64.41
2022-10-11T16:39:15.789Z,64.65
2022-10-11T16:41:43.133Z,65.08
2022-10-11T16:44:20.195Z,65.11
2022-10-11T16:46:48.548Z,65.46
2022-10-11T16:49:23.028Z,65.88
2022-10-11T16:51:55.964Z,65.90
2022-10-11T16:54:23.088Z,66.21
2022-10-11T16:56:50.598Z,67.28
2022-10-11T16:59:18.385Z,67.67
2022-10-11T17:01:45.941Z,67.61
2022-10-11T17:04:13.856Z,67.76
2022-10-11T17:06:43.862Z,67.73
2022-10-11T17:09:12.012Z,67.95
2022-10-11T17:11:39.034Z,68.29
2022-10-11T17:14:06.556Z,68.45
2022-10-11T17:16:34.714Z,68.20
2022-10-11T17:19:02.636Z,68.32
2022-10-11T17:21:30.018Z,68.86
2022-10-11T17:23:57.473Z,68.97
2022-10-11T17:26:26.622Z,68.80
2022-10-11T17:28:56.589Z,69.08
2022-10-11T17:31:24.637Z,68.68
2022-10-11T17:33:53.201Z,69.45
2022-10-11T17:36:31.911Z,69.22
2022-10-11T17:39:06.422Z,69.03
2022-10-11T17:41:33.422Z,68.60
2022-10-11T17:44:01.812Z,68.41
2022-10-11T17:46:32.572Z,69.67
2022-10-11T17:49:06.632Z,69.75
2022-10-11T17:51:36.016Z,69.63
2022-10-11T17:54:04.022Z,69.90
2022-10-11T17:56:36.629Z,70.58
2022-10-11T17:59:05.217Z,70.16
2022-10-11T18:01:32.265Z,69.91
2022-10-11T18:04:03.078Z,70.26
2022-10-11T18:06:33.735Z,70.84
2022-10-11T18:09:03.477Z,70.42
2022-10-11T18:11:30.937Z,70.96
2022-10-11T18:13:58.078Z,70.78
2022-10-11T18:16:28.675Z,70.75
2022-10-11T18:18:57.522Z,70.75
2022-10-11T18:21:33.643Z,71.15
2022-10-11T18:24:03.533Z,71.22
2022-10-11T18:26:31.040Z,71.60
2022-10-11T18:28:59.013Z,71.89
2022-10-11T18:31:29.989Z,72.14
2022-10-11T18:33:57.635Z,72.76
2022-10-11T18:36:28.888Z,72.38
2022-10-11T18:39:00.295Z,72.24
2022-10-11T18:41:31.616Z,72.40
2022-10-11T18:44:03.315Z,73.06
2022-10-11T18:46:31.090Z,72.96
2022-10-11T18:49:01.305Z,73.23
2022-10-11T18:51:32.375Z,72.94
2022-10-11T18:53:59.933Z,72.74
2022-10-11T18:56:29.145Z,73.77
2022-10-11T18:58:58.672Z,73.37
2022-10-11T19:01:35.556Z,73.26
2022-10-11T19:04:04.556Z,73.03
2022-10-11T19:06:36.209Z,73.33
2022-10-11T19:09:07.686Z,73.47
2022-10-11T19:11:34.641Z,74.50
2022-10-11T19:14:11.072Z,74.86
2022-10-11T19:16:41.814Z,75.09
2022-10-11T19:19:11.154Z,74.76
2022-10-11T19:21:39.078Z,74.87
2022-10-11T19:24:06.536Z,74.96
2022-10-11T19:26:38.748Z,75.36
2022-10-11T19:29:10.061Z,75.57
2022-10-11T19:31:41.907Z,75.06
2022-10-11T19:34:10.315Z,74.85
2022-10-11T19:36:37.314Z,75.80
2022-10-11T19:39:06.145Z,75.80
2022-10-11T19:41:33.518Z,76.11
2022-10-11T19:44:00.525Z,76.41
2022-10-11T19:46:49.927Z,76.27
2022-10-11T19:49:17.754Z,76.85
2022-10-11T19:51:44.879Z,76.80
2022-10-11T19:54:14.401Z,76.28
2022-10-11T19:56:42.498Z,76.16
2022-10-11T19:59:12.133Z,76.19
2022-10-11T20:01:39.986Z,75.67
2022-10-11T20:04:27.380Z,75.42
2022-10-11T20:06:58.307Z,75.64
2022-10-11T20:09:29.929Z,76.54
2022-10-11T20:11:58.063Z,76.61
2022-10-11T20:14:25.535Z,76.55
2022-10-11T20:16:52.779Z,76.99
2022-10-11T20:19:21.479Z,77.09
2022-10-11T20:21:49.811Z,77.08
2022-10-11T20:24:16.736Z,76.84
2022-10-11T20:26:43.659Z,76.75
2022-10-11T20:29:10.586Z,76.84
2022-10-11T20:31:38.853Z,77.82
2022-10-11T20:34:07.312Z,78.12
2022-10-11T20:36:36.381Z,77.78
2022-10-11T20:39:05.183Z,77.45
2022-10-11T20:41:45.151Z,77.57
2022-10-11T20:44:13.236Z,77.96
2022-10-11T20:46:40.519Z,78.08
2022-10-11T20:49:12.135Z,78.44
2022-10-11T20:51:41.564Z,78.52
2022-10-11T20:54:10.609Z,79.08
2022-10-11T20:56:38.497Z,78.95
2022-10-11T20:59:06.710Z,78.63
2022-10-11T21:01:40.680Z,78.61
2022-10-11T21:04:14.450Z,78.51
2022-10-11T21:06:41.431Z,78.51
2022-10-11T21:09:10.232Z,78.98
2022-10-11T21:11:39.644Z,80.27
2022-10-11T21:14:06.809Z,79.64
2022-10-11T21:16:34.714Z,79.32
2022-10-11T21:19:02.470Z,78.58
2022-10-11T21:21:30.309Z,78.80
2022-10-11T21:24:00.357Z,79.47
2022-10-11T21:26:28.532Z,80.04
2022-10-11T21:28:55.519Z,80.59
2022-10-11T21:31:23.665Z,80.36
2022-10-11T21:33:51.054Z,80.60
2022-10-11T21:36:21.047Z,81.12
2022-10-11T21:38:49.468Z,81.66
2022-10-11T21:41:23.315Z,81.25
2022-10-11T21:43:50.579Z,80.67
2022-10-11T21:47:01.062Z,80.53
2022-10-11T21:49:19.917Z,80.93
2022-10-11T21:51:46.854Z,80.65
2022-10-11T21:54:13.930Z,81.71
2022-10-11T21:56:40.941Z,81.89
2022-10-11T21:59:11.165Z,81.86
2022-10-11T22:01:40.630Z,81.49
2022-10-11T22:04:07.883Z,81.72
2022-10-11T22:06:35.783Z,82.08
2022-10-11T22:09:03.863Z,81.03
2022-10-11T22:11:31.343Z,81.49
2022-10-11T22:13:58.878Z,81.72
2022-10-11T22:16:25.804Z,82.18
2022-10-11T22:18:54.047Z,82.13
2022-10-11T22:21:23.585Z,82.26
2022-10-11T22:23:52.971Z,82.85
2022-10-11T22:26:29.803Z,82.76
2022-10-11T22:28:58.557Z,82.50
2022-10-11T22:31:25.754Z,83.33
2022-10-11T22:33:58.868Z,83.16
2022-10-11T22:36:27.234Z,82.18
2022-10-11T22:38:54.801Z,82.38
2022-10-11T22:41:22.218Z,82.43
2022-10-11T22:43:49.411Z,82.94
2022-10-11T22:46:16.870Z,82.56
2022-10-11T22:48:43.920Z,83.38
2022-10-11T22:51:10.868Z,83.84
2022-10-11T22:53:38.408Z,83.10
2022-10-11T22:56:05.622Z,83.03
2022-10-11T22:58:32.575Z,82.82
2022-10-11T23:01:11.707Z,81.86
2022-10-11T23:03:38.784Z,83.53
2022-10-11T23:06:06.298Z,83.78
2022-10-11T23:08:33.466Z,84.20
2022-10-11T23:11:08.115Z,84.35
2022-10-11T23:13:35.813Z,84.61
2022-10-11T23:16:11.616Z,84.27
2022-10-11T23:18:39.181Z,83.39
2022-10-11T23:21:07.007Z,82.91
2022-10-11T23:23:34.805Z,83.34
2022-10-11T23:26:22.036Z,83.88
2022-10-11T23:28:53.132Z,83.75
2022-10-11T23:31:20.260Z,83.74
2022-10-11T23:33:48.468Z,84.55
2022-10-11T23:36:22.015Z,84.03
2022-10-11T23:38:54.961Z,83.95
2022-10-11T23:41:24.123Z,83.96
2022-10-11T23:43:51.385Z,84.27
2022-10-11T23:46:18.392Z,84.43
2022-10-11T23:48:45.636Z,84.76
2022-10-11T23:51:14.243Z,84.44
2022-10-11T23:53:41.528Z,84.81
2022-10-11T23:56:09.842Z,85.12
2022-10-11T23:58:36.822Z,84.83
